Crown Of Scandinavia — OXRA6 — position and weather

sailwx.info

Track history (hours):
 
Tides and Currents Weather Stations Pressure Air Temp Water Temp Dewpoint Dewpoint Depression Visibility Wind Speed Wind Dir Waves Ship Positions

Crown Of Scandinavia

Last reported at 2017-Sep-25 10:00 UTC. Time now 2017-Sep-25 10:07 UTC.
Position N 55°42' E 012°36'.

Length 171 m; draft 6.3 m.

Type: Ship. MMSI: 219592000.

Date/timePositionNaut miles runAvg speedWind from/ knotsBaromVisibWave heightAir tempDewpointWater temp
2017-Sep-25 10:00N 55°42' E 012°36'0 0.0
2017-Sep-25 09:30N 55°42' E 012°36'0 0.0
2017-Sep-25 09:00N 55°42' E 012°36'0 0.0
2017-Sep-25 08:30N 55°42' E 012°36'0 0.0
2017-Sep-25 08:00N 55°42' E 012°36'1 1.6
2017-Sep-25 07:31N 55°43' E 012°37'713.4
2017-Sep-25 07:00N 55°49' E 012°42'815.4
2017-Sep-25 06:30N 55°56' E 012°39'815.0
2017-Sep-25 06:00N 56°04' E 012°38'714.6
2017-Sep-25 05:30N 56°08' E 012°28'815.2
2017-Sep-25 04:59N 56°15' E 012°19'3915.9
2017-Sep-25 02:33N 56°50' E 011°49'116.8
2017-Sep-25 02:29N 56°51' E 011°48'816.9
2017-Sep-25 02:00N 56°58' E 011°43'916.7
2017-Sep-25 01:28N 57°06' E 011°36'816.5
2017-Sep-25 01:00N 57°13' E 011°31'916.8
2017-Sep-25 00:30N 57°21' E 011°25'816.7
2017-Sep-25 00:00N 57°29' E 011°20'816.6
2017-Sep-24 23:30N 57°37' E 011°20'816.8
2017-Sep-24 23:00N 57°46' E 011°19'816.8
2017-Sep-24 22:30N 57°54' E 011°16'816.6
2017-Sep-24 22:00N 58°02' E 011°13'1016.5
2017-Sep-24 21:24N 58°11' E 011°06'716.4
2017-Sep-24 21:00N 58°17' E 011°01'816.3
2017-Sep-24 20:30N 58°25' E 010°57'816.3
2017-Sep-24 20:00N 58°33' E 010°51'816.0
2017-Sep-24 19:30N 58°40' E 010°46'815.8
2017-Sep-24 19:00N 58°48' E 010°44'815.7
2017-Sep-24 18:30N 58°56' E 010°42'816.4
2017-Sep-24 18:00N 59°04' E 010°40'816.4
2017-Sep-24 17:31N 59°12' E 010°38'816.4
2017-Sep-24 17:00N 59°20' E 010°35'816.3
2017-Sep-24 16:30N 59°28' E 010°34'816.4
2017-Sep-24 16:00N 59°36' E 010°38'713.7
2017-Sep-24 15:31N 59°43' E 010°35'715.0
2017-Sep-24 15:01N 59°50' E 010°35'612.3
2017-Sep-24 14:30N 59°54' E 010°45'0 0.3
2017-Sep-24 13:59N 59°54' E 010°45'0 0.0
2017-Sep-24 13:29N 59°54' E 010°45'0 0.0
2017-Sep-24 12:59N 59°54' E 010°45'0 0.0
2017-Sep-24 12:29N 59°54' E 010°45'0 0.0
2017-Sep-24 11:59N 59°54' E 010°45'0 0.0
2017-Sep-24 11:29N 59°54' E 010°45'0 0.0
2017-Sep-24 10:59N 59°54' E 010°45'0 0.0
2017-Sep-24 10:29N 59°54' E 010°45'0 0.0
2017-Sep-24 09:59N 59°54' E 010°45'0 0.0
2017-Sep-24 09:29N 59°54' E 010°45'0 0.0
2017-Sep-24 08:59N 59°54' E 010°45'0 0.0
2017-Sep-24 08:29N 59°54' E 010°45'0 0.0
2017-Sep-24 07:59N 59°54' E 010°45'1 2.1
2017-Sep-24 07:29N 59°54' E 010°43'715.0
2017-Sep-24 07:01N 59°48' E 010°35'714.5
2017-Sep-24 06:31N 59°41' E 010°37'714.8
2017-Sep-24 06:00N 59°33' E 010°38'815.4
2017-Sep-24 05:30N 59°26' E 010°34'815.7
2017-Sep-24 05:00N 59°18' E 010°36'815.7
2017-Sep-24 04:30N 59°10' E 010°39'815.7
2017-Sep-24 04:00N 59°03' E 010°41'815.8
2017-Sep-24 03:30N 58°55' E 010°42'816.4
2017-Sep-24 03:00N 58°47' E 010°44'816.4
2017-Sep-24 02:30N 58°39' E 010°47'916.8
2017-Sep-24 02:00N 58°30' E 010°53'817.0
2017-Sep-24 01:30N 58°23' E 010°58'916.9
2017-Sep-24 01:00N 58°15' E 011°03'917.1
2017-Sep-24 00:30N 58°06' E 011°09'917.4
2017-Sep-23 23:59N 57°58' E 011°15'817.5
2017-Sep-23 23:30N 57°50' E 011°20'917.4
2017-Sep-23 23:00N 57°42' E 011°25'917.2
2017-Sep-23 22:30N 57°34' E 011°31'816.8
2017-Sep-23 22:00N 57°26' E 011°38'816.8
2017-Sep-23 21:30N 57°19' E 011°46'1017.1
2017-Sep-23 20:57N 57°11' E 011°54'82 1.9
2017-Sep-22 02:00N 58°27' E 010°54'917.4
2017-Sep-22 01:30N 58°19' E 010°60'1117.3
2017-Sep-22 00:52N 58°08' E 011°08'717.4
2017-Sep-22 00:26N 58°02' E 011°14'717.4
2017-Sep-22 00:00N 57°55' E 011°19'917.1
2017-Sep-21 23:30N 57°47' E 011°24'816.9
2017-Sep-21 23:00N 57°39' E 011°29'816.7
2017-Sep-21 22:30N 57°31' E 011°35'816.9
2017-Sep-21 22:00N 57°23' E 011°42'916.7
2017-Sep-21 21:28N 57°15' E 011°50'2413.7
2017-Sep-21 19:43N 56°54' E 012°10'1 5.5
2017-Sep-21 19:30N 56°53' E 012°08'1015.3
2017-Sep-21 18:50N 56°43' E 012°13'715.6
2017-Sep-21 18:24N 56°37' E 012°17'615.3
2017-Sep-21 18:01N 56°31' E 012°19'915.7
2017-Sep-21 17:26N 56°22' E 012°23'716.1
2017-Sep-21 17:00N 56°16' E 012°26'815.9
2017-Sep-21 16:30N 56°08' E 012°31'816.9
2017-Sep-21 16:00N 56°01' E 012°40'816.0
2017-Sep-21 15:30N 55°54' E 012°45'815.6
2017-Sep-21 15:00N 55°46' E 012°42'510.3
2017-Sep-21 14:31N 55°42' E 012°36'0 0.0
2017-Sep-21 13:59N 55°42' E 012°36'0 0.0
2017-Sep-21 13:29N 55°42' E 012°36'0 0.0
2017-Sep-21 12:59N 55°42' E 012°36'0 0.0
2017-Sep-21 12:29N 55°42' E 012°36'0 0.0
2017-Sep-21 11:59N 55°42' E 012°36'0 0.0
2017-Sep-21 11:29N 55°42' E 012°36'0 0.0
2017-Sep-21 10:59N 55°42' E 012°36'0 0.0
2017-Sep-21 10:29N 55°42' E 012°36'0 0.0
2017-Sep-21 09:59N 55°42' E 012°36'0 0.0
2017-Sep-21 09:29N 55°42' E 012°36'0 0.0
2017-Sep-21 08:59N 55°42' E 012°36'0 0.0
2017-Sep-21 08:29N 55°42' E 012°36'0 0.0
2017-Sep-21 07:59N 55°42' E 012°36'0 0.7
2017-Sep-21 07:30N 55°42' E 012°36'611.9
2017-Sep-21 07:01N 55°47' E 012°42'815.1
2017-Sep-21 06:31N 55°55' E 012°39'815.7
2017-Sep-21 06:01N 56°03' E 012°39'714.8
2017-Sep-21 05:31N 56°08' E 012°30'815.7
2017-Sep-21 05:01N 56°14' E 012°21'1116.9
2017-Sep-21 04:22N 56°22' E 012°09'817.2
2017-Sep-21 03:55N 56°29' E 012°02'3717.1
2017-Sep-21 01:44N 57°04' E 011°38'416.5
2017-Sep-21 01:31N 57°07' E 011°35'816.6
2017-Sep-21 01:00N 57°15' E 011°30'816.6
2017-Sep-21 00:31N 57°23' E 011°25'816.3
2017-Sep-21 00:00N 57°31' E 011°19'816.5
2017-Sep-20 23:30N 57°38' E 011°13'816.5
2017-Sep-20 23:01N 57°46' E 011°08'916.3
2017-Sep-20 22:29N 57°54' E 011°03'816.8
2017-Sep-20 21:59N 58°02' E 010°57'816.6
2017-Sep-20 21:30N 58°09' E 010°52'916.2
2017-Sep-20 20:58N 58°18' E 010°46'916.0
2017-Sep-20 20:25N 58°26' E 010°40'716.3
2017-Sep-20 20:00N 58°32' E 010°37'816.4
2017-Sep-20 19:31N 58°40' E 010°36'816.5
2017-Sep-20 19:01N 58°49' E 010°34'816.7
2017-Sep-20 18:31N 58°57' E 010°36'816.7
2017-Sep-20 18:01N 59°05' E 010°38'816.7
2017-Sep-20 17:31N 59°14' E 010°37'817.0
2017-Sep-20 17:01N 59°22' E 010°34'817.0
2017-Sep-20 16:31N 59°30' E 010°34'816.2
2017-Sep-20 16:01N 59°38' E 010°37'713.9
2017-Sep-20 15:30N 59°45' E 010°33'816.2
2017-Sep-20 15:00N 59°53' E 010°39'3 3.3
2017-Sep-20 14:00N 59°54' E 010°45'0 0.0
2017-Sep-20 13:30N 59°54' E 010°45'0 0.0
2017-Sep-20 13:00N 59°54' E 010°45'0 0.0
2017-Sep-20 12:30N 59°54' E 010°45'0 0.0
2017-Sep-20 12:00N 59°54' E 010°45'0 0.0
2017-Sep-20 11:30N 59°54' E 010°45'0 0.0
2017-Sep-20 11:00N 59°54' E 010°45'0 0.0
2017-Sep-20 10:30N 59°54' E 010°45'0 0.0
2017-Sep-20 10:00N 59°54' E 010°45'0 0.0
2017-Sep-20 09:30N 59°54' E 010°45'0 0.0
2017-Sep-20 09:00N 59°54' E 010°45'0 0.0
2017-Sep-20 08:30N 59°54' E 010°45'0 0.0
2017-Sep-20 08:00N 59°54' E 010°45'0 0.5
2017-Sep-20 07:30N 59°54' E 010°45'510.0
2017-Sep-20 07:00N 59°51' E 010°37'815.3
2017-Sep-20 06:31N 59°43' E 010°35'713.2
2017-Sep-20 06:01N 59°37' E 010°38'815.2
2017-Sep-20 05:31N 59°29' E 010°35'815.2
2017-Sep-20 05:01N 59°22' E 010°35'815.7
2017-Sep-20 04:31N 59°14' E 010°39'815.9
2017-Sep-20 04:01N 59°06' E 010°40'816.0
2017-Sep-20 03:31N 58°58' E 010°42'816.0
2017-Sep-20 03:00N 58°51' E 010°45'816.2
2017-Sep-20 02:31N 58°43' E 010°48'816.5
2017-Sep-20 02:01N 58°34' E 010°51'917.4
2017-Sep-20 01:31N 58°26' E 010°56'917.1
2017-Sep-20 01:01N 58°18' E 011°00'916.9
2017-Sep-20 00:27N 58°09' E 011°05'817.1
2017-Sep-19 23:58N 58°01' E 011°09'817.0
2017-Sep-19 23:30N 57°53' E 011°14'917.1
2017-Sep-19 23:00N 57°45' E 011°18'917.2
2017-Sep-19 22:31N 57°37' E 011°23'917.4
2017-Sep-19 22:01N 57°29' E 011°28'917.0
2017-Sep-19 21:30N 57°21' E 011°33'816.7
2017-Sep-19 21:00N 57°13' E 011°38'916.6
2017-Sep-19 20:28N 57°04' E 011°43'5216.1
2017-Sep-19 17:16N 56°18' E 012°23'416.4
2017-Sep-19 17:01N 56°14' E 012°25'816.4
2017-Sep-19 16:31N 56°07' E 012°34'816.3
2017-Sep-19 16:00N 55°60' E 012°41'816.2
2017-Sep-19 15:31N 55°52' E 012°45'815.6
2017-Sep-19 15:01N 55°44' E 012°40'3 6.9
2017-Sep-19 14:30N 55°42' E 012°36'0 0.0
2017-Sep-19 14:00N 55°42' E 012°36'0 0.0
2017-Sep-19 13:30N 55°42' E 012°36'0 0.0
2017-Sep-19 13:00N 55°42' E 012°36'0 0.0
2017-Sep-19 12:30N 55°42' E 012°36'0 0.0
2017-Sep-19 12:00N 55°42' E 012°36'0 0.0
2017-Sep-19 11:30N 55°42' E 012°36'0 0.0
2017-Sep-19 11:00N 55°42' E 012°36'0 0.1
2017-Sep-19 10:30N 55°42' E 012°36'0 0.0
2017-Sep-19 10:00N 55°42' E 012°36'0 0.0
2017-Sep-19 09:30N 55°42' E 012°36'0 0.0
2017-Sep-19 09:00N 55°42' E 012°36'0 0.0
2017-Sep-19 08:30N 55°42' E 012°36'0 0.0
2017-Sep-19 08:01N 55°42' E 012°36'1 2.1
2017-Sep-19 07:30N 55°43' E 012°37'713.7
2017-Sep-19 07:00N 55°49' E 012°42'816.3
2017-Sep-19 06:31N 55°57' E 012°40'815.8
2017-Sep-19 06:01N 56°05' E 012°36'816.8
2017-Sep-19 05:31N 56°12' E 012°28'6814.8
2017-Sep-19 00:53N 57°16' E 011°49'616.7
2017-Sep-19 00:31N 57°22' E 011°43'917.1
2017-Sep-19 00:00N 57°29' E 011°35'817.0
2017-Sep-18 23:30N 57°37' E 011°27'917.1
2017-Sep-18 22:59N 57°44' E 011°17'817.2
2017-Sep-18 22:30N 57°51' E 011°09'917.2
2017-Sep-18 22:00N 57°58' E 011°00'917.5
2017-Sep-18 21:30N 58°07' E 010°54'1017.0
2017-Sep-18 20:54N 58°16' E 010°47'717.1
2017-Sep-18 20:30N 58°22' E 010°43'816.9
2017-Sep-18 20:01N 58°30' E 010°37'816.4
2017-Sep-18 19:30N 58°38' E 010°37'815.9
2017-Sep-18 19:01N 58°46' E 010°36'816.4
2017-Sep-18 18:30N 58°54' E 010°34'816.0
2017-Sep-18 18:00N 59°02' E 010°36'816.0
2017-Sep-18 17:30N 59°10' E 010°38'816.6
2017-Sep-18 17:01N 59°19' E 010°36'816.6
2017-Sep-18 16:31N 59°27' E 010°33'816.6
2017-Sep-18 16:01N 59°35' E 010°38'714.4
2017-Sep-18 15:31N 59°42' E 010°35'815.7
2017-Sep-18 15:00N 59°50' E 010°35'712.9
2017-Sep-18 14:30N 59°54' E 010°44'0 0.3
2017-Sep-18 13:59N 59°54' E 010°45'0 0.0
2017-Sep-18 13:29N 59°54' E 010°45'0 0.0
2017-Sep-18 12:59N 59°54' E 010°45'0 0.0
2017-Sep-18 12:29N 59°54' E 010°45'0 0.0
2017-Sep-18 11:59N 59°54' E 010°45'0 0.0
2017-Sep-18 11:29N 59°54' E 010°45'0 0.0
2017-Sep-18 10:59N 59°54' E 010°45'0 0.0
2017-Sep-18 10:29N 59°54' E 010°45'0 0.0
2017-Sep-18 09:59N 59°54' E 010°45'0 0.0
2017-Sep-18 09:29N 59°54' E 010°45'0 0.0
2017-Sep-18 08:59N 59°54' E 010°45'0 0.0
2017-Sep-18 08:29N 59°54' E 010°45'0 0.0
2017-Sep-18 07:59N 59°54' E 010°45'0 0.2
2017-Sep-18 07:30N 59°54' E 010°45'612.1
2017-Sep-18 07:00N 59°50' E 010°36'815.2
2017-Sep-18 06:30N 59°42' E 010°36'713.4
2017-Sep-18 06:00N 59°36' E 010°38'816.3
2017-Sep-18 05:30N 59°28' E 010°34'815.0
2017-Sep-18 05:00N 59°20' E 010°36'815.6
2017-Sep-18 04:30N 59°13' E 010°38'815.5
2017-Sep-18 04:00N 59°05' E 010°41'815.6
2017-Sep-18 03:30N 58°57' E 010°41'815.8
2017-Sep-18 03:00N 58°50' E 010°45'815.9
2017-Sep-18 02:30N 58°42' E 010°47'816.5
2017-Sep-18 02:00N 58°34' E 010°50'917.4
2017-Sep-18 01:30N 58°25' E 010°55'917.4
2017-Sep-18 01:00N 58°17' E 010°60'817.0
2017-Sep-18 00:31N 58°09' E 011°04'816.5
2017-Sep-18 00:00N 58°01' E 011°09'816.2
2017-Sep-17 23:30N 57°54' E 011°16'816.4
2017-Sep-17 23:00N 57°46' E 011°22'816.4
2017-Sep-17 22:30N 57°38' E 011°26'816.6
2017-Sep-17 22:00N 57°30' E 011°30'816.5
2017-Sep-17 21:30N 57°22' E 011°32'816.3
2017-Sep-17 21:00N 57°14' E 011°36'816.7
2017-Sep-17 20:30N 57°06' E 011°41'4715.8
2017-Sep-17 17:31N 56°24' E 012°17'115.3
2017-Sep-17 17:28N 56°23' E 012°17'915.7
2017-Sep-17 16:53N 56°15' E 012°25'616.8
2017-Sep-17 16:30N 56°09' E 012°31'917.4
2017-Sep-17 16:00N 56°02' E 012°40'816.7
2017-Sep-17 15:30N 55°54' E 012°45'816.0
2017-Sep-17 15:00N 55°46' E 012°42'510.8
2017-Sep-17 14:30N 55°42' E 012°36'0 0.2
2017-Sep-17 13:58N 55°42' E 012°36'0 0.0
2017-Sep-17 13:28N 55°42' E 012°36'0 0.0
2017-Sep-17 12:58N 55°42' E 012°36'0 0.0
2017-Sep-17 12:28N 55°42' E 012°36'0 0.0
2017-Sep-17 11:58N 55°42' E 012°36'0 0.0
2017-Sep-17 11:28N 55°42' E 012°36'0 0.0
2017-Sep-17 10:58N 55°42' E 012°36'0 0.0
2017-Sep-17 10:28N 55°42' E 012°36'0 0.0
2017-Sep-17 09:58N 55°42' E 012°36'0 0.0
2017-Sep-17 09:28N 55°42' E 012°36'0 0.0
2017-Sep-17 08:58N 55°42' E 012°36'0 0.0
2017-Sep-17 08:28N 55°42' E 012°36'0 0.0
2017-Sep-17 07:58N 55°42' E 012°36'0 0.9
2017-Sep-17 07:31N 55°42' E 012°36'611.7
2017-Sep-17 07:01N 55°47' E 012°42'714.1
2017-Sep-17 06:31N 55°54' E 012°39'815.2
2017-Sep-17 06:01N 56°02' E 012°39'714.3
2017-Sep-17 05:31N 56°07' E 012°31'714.6
2017-Sep-17 05:01N 56°14' E 012°24'814.9
2017-Sep-17 04:30N 56°21' E 012°20'5616.0
2017-Sep-17 01:01N 57°14' E 011°52'016.6
2017-Sep-17 01:00N 57°14' E 011°51'916.5
2017-Sep-17 00:29N 57°21' E 011°41'816.6
2017-Sep-17 00:01N 57°27' E 011°32'816.7
2017-Sep-16 23:31N 57°34' E 011°24'917.2
2017-Sep-16 23:00N 57°42' E 011°16'917.2
2017-Sep-16 22:30N 57°49' E 011°06'917.0
2017-Sep-16 21:58N 57°57' E 011°01'817.2
2017-Sep-16 21:31N 58°05' E 010°55'917.3
2017-Sep-16 21:00N 58°13' E 010°49'917.3
2017-Sep-16 20:31N 58°21' E 010°43'816.9
2017-Sep-16 20:00N 58°29' E 010°38'816.2
2017-Sep-16 19:30N 58°37' E 010°36'815.7
2017-Sep-16 19:01N 58°45' E 010°35'816.7
2017-Sep-16 18:31N 58°53' E 010°35'817.0
2017-Sep-16 18:01N 59°02' E 010°37'817.0
2017-Sep-16 17:31N 59°10' E 010°38'917.4
2017-Sep-16 17:01N 59°19' E 010°36'917.4
2017-Sep-16 16:31N 59°27' E 010°33'816.8
2017-Sep-16 16:01N 59°35' E 010°38'714.7
2017-Sep-16 15:31N 59°42' E 010°35'815.9
2017-Sep-16 15:01N 59°50' E 010°35'612.2
2017-Sep-16 14:30N 59°54' E 010°45'0 0.4
2017-Sep-16 14:00N 59°54' E 010°45'0 0.0
2017-Sep-16 13:30N 59°54' E 010°45'0 0.0
2017-Sep-16 13:00N 59°54' E 010°45'0 0.0
2017-Sep-16 12:30N 59°54' E 010°45'0 0.0
2017-Sep-16 12:00N 59°54' E 010°45'0 0.0
2017-Sep-16 11:30N 59°54' E 010°45'0 0.0
2017-Sep-16 11:00N 59°54' E 010°45'0 0.0
2017-Sep-16 10:30N 59°54' E 010°45'0 0.0
2017-Sep-16 10:00N 59°54' E 010°45'0 0.0
2017-Sep-16 09:30N 59°54' E 010°45'0 0.0
2017-Sep-16 09:00N 59°54' E 010°45'0 0.0
2017-Sep-16 08:30N 59°54' E 010°45'0 0.0
2017-Sep-16 08:00N 59°54' E 010°45'0 0.5
2017-Sep-16 07:30N 59°54' E 010°44'611.9
2017-Sep-16 07:01N 59°50' E 010°36'815.2
2017-Sep-16 06:30N 59°42' E 010°36'713.8
2017-Sep-16 06:00N 59°36' E 010°38'815.5
2017-Sep-16 05:30N 59°28' E 010°34'815.2
2017-Sep-16 05:00N 59°20' E 010°35'815.2
2017-Sep-16 04:30N 59°13' E 010°38'815.1
2017-Sep-16 04:00N 59°06' E 010°40'714.8
2017-Sep-16 03:30N 58°58' E 010°42'815.1
2017-Sep-16 03:00N 58°51' E 010°43'815.9
2017-Sep-16 02:30N 58°43' E 010°45'817.0
2017-Sep-16 02:00N 58°35' E 010°49'917.8
2017-Sep-16 01:30N 58°26' E 010°54'918.5
2017-Sep-16 01:00N 58°17' E 010°60'918.2
2017-Sep-16 00:30N 58°09' E 011°05'917.5
2017-Sep-16 00:00N 58°00' E 011°10'917.7
2017-Sep-15 23:30N 57°52' E 011°15'816.9
2017-Sep-15 23:00N 57°44' E 011°20'816.9
2017-Sep-15 22:30N 57°36' E 011°25'917.3
2017-Sep-15 22:00N 57°28' E 011°30'917.5
2017-Sep-15 21:30N 57°19' E 011°35'1117.6
2017-Sep-15 20:54N 57°09' E 011°40'1217.5
2017-Sep-15 20:14N 56°58' E 011°49'4716.8
2017-Sep-15 17:27N 56°16' E 012°24'816.9
2017-Sep-15 17:00N 56°09' E 012°30'815.8
2017-Sep-15 16:30N 56°03' E 012°39'714.3
2017-Sep-15 16:00N 55°56' E 012°39'815.7
2017-Sep-15 15:30N 55°48' E 012°42'612.7
2017-Sep-15 15:00N 55°43' E 012°37'1 1.5
2017-Sep-15 14:29N 55°42' E 012°36'0 0.0
2017-Sep-15 13:53N 55°42' E 012°36'0 0.0
2017-Sep-15 13:26N 55°42' E 012°36'0 0.0
2017-Sep-15 12:59N 55°42' E 012°36'0 0.0
2017-Sep-15 12:29N 55°42' E 012°36'0 0.0
2017-Sep-15 11:59N 55°42' E 012°36'0 0.0
2017-Sep-15 11:29N 55°42' E 012°36'0 0.0
2017-Sep-15 10:59N 55°42' E 012°36'0 0.0
2017-Sep-15 10:29N 55°42' E 012°36'  
Track history (hours):
 
Tides and Currents Weather Stations Pressure Air Temp Water Temp Dewpoint Dewpoint Depression Visibility Wind Speed Wind Dir Waves Ship Positions

Crown Of Scandinavia

Last reported at 2017-Sep-25 10:00 UTC. Time now 2017-Sep-25 10:07 UTC.
Position N 55°42' E 012°36'.

Length 171 m; draft 6.3 m.

Type: Ship. MMSI: 219592000.

Date/timePositionNaut miles runAvg speedWind from/ knotsBaromVisibWave heightAir tempDewpointWater temp
2017-Sep-25 10:00N 55°42' E 012°36'0 0.0
2017-Sep-25 09:30N 55°42' E 012°36'0 0.0
2017-Sep-25 09:00N 55°42' E 012°36'0 0.0
2017-Sep-25 08:30N 55°42' E 012°36'0 0.0
2017-Sep-25 08:00N 55°42' E 012°36'1 1.6
2017-Sep-25 07:31N 55°43' E 012°37'713.4
2017-Sep-25 07:00N 55°49' E 012°42'815.4
2017-Sep-25 06:30N 55°56' E 012°39'815.0
2017-Sep-25 06:00N 56°04' E 012°38'714.6
2017-Sep-25 05:30N 56°08' E 012°28'815.2
2017-Sep-25 04:59N 56°15' E 012°19'3915.9
2017-Sep-25 02:33N 56°50' E 011°49'116.8
2017-Sep-25 02:29N 56°51' E 011°48'816.9
2017-Sep-25 02:00N 56°58' E 011°43'916.7
2017-Sep-25 01:28N 57°06' E 011°36'816.5
2017-Sep-25 01:00N 57°13' E 011°31'916.8
2017-Sep-25 00:30N 57°21' E 011°25'816.7
2017-Sep-25 00:00N 57°29' E 011°20'816.6
2017-Sep-24 23:30N 57°37' E 011°20'816.8
2017-Sep-24 23:00N 57°46' E 011°19'816.8
2017-Sep-24 22:30N 57°54' E 011°16'816.6
2017-Sep-24 22:00N 58°02' E 011°13'1016.5
2017-Sep-24 21:24N 58°11' E 011°06'716.4
2017-Sep-24 21:00N 58°17' E 011°01'816.3
2017-Sep-24 20:30N 58°25' E 010°57'816.3
2017-Sep-24 20:00N 58°33' E 010°51'816.0
2017-Sep-24 19:30N 58°40' E 010°46'815.8
2017-Sep-24 19:00N 58°48' E 010°44'815.7
2017-Sep-24 18:30N 58°56' E 010°42'816.4
2017-Sep-24 18:00N 59°04' E 010°40'816.4
2017-Sep-24 17:31N 59°12' E 010°38'816.4
2017-Sep-24 17:00N 59°20' E 010°35'816.3
2017-Sep-24 16:30N 59°28' E 010°34'816.4
2017-Sep-24 16:00N 59°36' E 010°38'713.7
2017-Sep-24 15:31N 59°43' E 010°35'715.0
2017-Sep-24 15:01N 59°50' E 010°35'612.3
2017-Sep-24 14:30N 59°54' E 010°45'0 0.3
2017-Sep-24 13:59N 59°54' E 010°45'0 0.0
2017-Sep-24 13:29N 59°54' E 010°45'0 0.0
2017-Sep-24 12:59N 59°54' E 010°45'0 0.0
2017-Sep-24 12:29N 59°54' E 010°45'0 0.0
2017-Sep-24 11:59N 59°54' E 010°45'0 0.0
2017-Sep-24 11:29N 59°54' E 010°45'0 0.0
2017-Sep-24 10:59N 59°54' E 010°45'0 0.0
2017-Sep-24 10:29N 59°54' E 010°45'0 0.0
2017-Sep-24 09:59N 59°54' E 010°45'0 0.0
2017-Sep-24 09:29N 59°54' E 010°45'0 0.0
2017-Sep-24 08:59N 59°54' E 010°45'0 0.0
2017-Sep-24 08:29N 59°54' E 010°45'0 0.0
2017-Sep-24 07:59N 59°54' E 010°45'1 2.1
2017-Sep-24 07:29N 59°54' E 010°43'715.0
2017-Sep-24 07:01N 59°48' E 010°35'714.5
2017-Sep-24 06:31N 59°41' E 010°37'714.8
2017-Sep-24 06:00N 59°33' E 010°38'815.4
2017-Sep-24 05:30N 59°26' E 010°34'815.7
2017-Sep-24 05:00N 59°18' E 010°36'815.7
2017-Sep-24 04:30N 59°10' E 010°39'815.7
2017-Sep-24 04:00N 59°03' E 010°41'815.8
2017-Sep-24 03:30N 58°55' E 010°42'816.4
2017-Sep-24 03:00N 58°47' E 010°44'816.4
2017-Sep-24 02:30N 58°39' E 010°47'916.8
2017-Sep-24 02:00N 58°30' E 010°53'817.0
2017-Sep-24 01:30N 58°23' E 010°58'916.9
2017-Sep-24 01:00N 58°15' E 011°03'917.1
2017-Sep-24 00:30N 58°06' E 011°09'917.4
2017-Sep-23 23:59N 57°58' E 011°15'817.5
2017-Sep-23 23:30N 57°50' E 011°20'917.4
2017-Sep-23 23:00N 57°42' E 011°25'917.2
2017-Sep-23 22:30N 57°34' E 011°31'816.8
2017-Sep-23 22:00N 57°26' E 011°38'816.8
2017-Sep-23 21:30N 57°19' E 011°46'1017.1
2017-Sep-23 20:57N 57°11' E 011°54'82 1.9
2017-Sep-22 02:00N 58°27' E 010°54'917.4
2017-Sep-22 01:30N 58°19' E 010°60'1117.3
2017-Sep-22 00:52N 58°08' E 011°08'717.4
2017-Sep-22 00:26N 58°02' E 011°14'717.4
2017-Sep-22 00:00N 57°55' E 011°19'917.1
2017-Sep-21 23:30N 57°47' E 011°24'816.9
2017-Sep-21 23:00N 57°39' E 011°29'816.7
2017-Sep-21 22:30N 57°31' E 011°35'816.9
2017-Sep-21 22:00N 57°23' E 011°42'916.7
2017-Sep-21 21:28N 57°15' E 011°50'2413.7
2017-Sep-21 19:43N 56°54' E 012°10'1 5.5
2017-Sep-21 19:30N 56°53' E 012°08'1015.3
2017-Sep-21 18:50N 56°43' E 012°13'715.6
2017-Sep-21 18:24N 56°37' E 012°17'615.3
2017-Sep-21 18:01N 56°31' E 012°19'915.7
2017-Sep-21 17:26N 56°22' E 012°23'716.1
2017-Sep-21 17:00N 56°16' E 012°26'815.9
2017-Sep-21 16:30N 56°08' E 012°31'816.9
2017-Sep-21 16:00N 56°01' E 012°40'816.0
2017-Sep-21 15:30N 55°54' E 012°45'815.6
2017-Sep-21 15:00N 55°46' E 012°42'510.3
2017-Sep-21 14:31N 55°42' E 012°36'0 0.0
2017-Sep-21 13:59N 55°42' E 012°36'0 0.0
2017-Sep-21 13:29N 55°42' E 012°36'0 0.0
2017-Sep-21 12:59N 55°42' E 012°36'0 0.0
2017-Sep-21 12:29N 55°42' E 012°36'0 0.0
2017-Sep-21 11:59N 55°42' E 012°36'0 0.0
2017-Sep-21 11:29N 55°42' E 012°36'0 0.0
2017-Sep-21 10:59N 55°42' E 012°36'0 0.0
2017-Sep-21 10:29N 55°42' E 012°36'0 0.0
2017-Sep-21 09:59N 55°42' E 012°36'0 0.0
2017-Sep-21 09:29N 55°42' E 012°36'0 0.0
2017-Sep-21 08:59N 55°42' E 012°36'0 0.0
2017-Sep-21 08:29N 55°42' E 012°36'0 0.0
2017-Sep-21 07:59N 55°42' E 012°36'0 0.7
2017-Sep-21 07:30N 55°42' E 012°36'611.9
2017-Sep-21 07:01N 55°47' E 012°42'815.1
2017-Sep-21 06:31N 55°55' E 012°39'815.7
2017-Sep-21 06:01N 56°03' E 012°39'714.8
2017-Sep-21 05:31N 56°08' E 012°30'815.7
2017-Sep-21 05:01N 56°14' E 012°21'1116.9
2017-Sep-21 04:22N 56°22' E 012°09'817.2
2017-Sep-21 03:55N 56°29' E 012°02'3717.1
2017-Sep-21 01:44N 57°04' E 011°38'416.5
2017-Sep-21 01:31N 57°07' E 011°35'816.6
2017-Sep-21 01:00N 57°15' E 011°30'816.6
2017-Sep-21 00:31N 57°23' E 011°25'816.3
2017-Sep-21 00:00N 57°31' E 011°19'816.5
2017-Sep-20 23:30N 57°38' E 011°13'816.5
2017-Sep-20 23:01N 57°46' E 011°08'916.3
2017-Sep-20 22:29N 57°54' E 011°03'816.8
2017-Sep-20 21:59N 58°02' E 010°57'816.6
2017-Sep-20 21:30N 58°09' E 010°52'916.2
2017-Sep-20 20:58N 58°18' E 010°46'916.0
2017-Sep-20 20:25N 58°26' E 010°40'716.3
2017-Sep-20 20:00N 58°32' E 010°37'816.4
2017-Sep-20 19:31N 58°40' E 010°36'816.5
2017-Sep-20 19:01N 58°49' E 010°34'816.7
2017-Sep-20 18:31N 58°57' E 010°36'816.7
2017-Sep-20 18:01N 59°05' E 010°38'816.7
2017-Sep-20 17:31N 59°14' E 010°37'817.0
2017-Sep-20 17:01N 59°22' E 010°34'817.0
2017-Sep-20 16:31N 59°30' E 010°34'816.2
2017-Sep-20 16:01N 59°38' E 010°37'713.9
2017-Sep-20 15:30N 59°45' E 010°33'816.2
2017-Sep-20 15:00N 59°53' E 010°39'3 3.3
2017-Sep-20 14:00N 59°54' E 010°45'0 0.0
2017-Sep-20 13:30N 59°54' E 010°45'0 0.0
2017-Sep-20 13:00N 59°54' E 010°45'0 0.0
2017-Sep-20 12:30N 59°54' E 010°45'0 0.0
2017-Sep-20 12:00N 59°54' E 010°45'0 0.0
2017-Sep-20 11:30N 59°54' E 010°45'0 0.0
2017-Sep-20 11:00N 59°54' E 010°45'0 0.0
2017-Sep-20 10:30N 59°54' E 010°45'0 0.0
2017-Sep-20 10:00N 59°54' E 010°45'0 0.0
2017-Sep-20 09:30N 59°54' E 010°45'0 0.0
2017-Sep-20 09:00N 59°54' E 010°45'0 0.0
2017-Sep-20 08:30N 59°54' E 010°45'0 0.0
2017-Sep-20 08:00N 59°54' E 010°45'0 0.5
2017-Sep-20 07:30N 59°54' E 010°45'510.0
2017-Sep-20 07:00N 59°51' E 010°37'815.3
2017-Sep-20 06:31N 59°43' E 010°35'713.2
2017-Sep-20 06:01N 59°37' E 010°38'815.2
2017-Sep-20 05:31N 59°29' E 010°35'815.2
2017-Sep-20 05:01N 59°22' E 010°35'815.7
2017-Sep-20 04:31N 59°14' E 010°39'815.9
2017-Sep-20 04:01N 59°06' E 010°40'816.0
2017-Sep-20 03:31N 58°58' E 010°42'816.0
2017-Sep-20 03:00N 58°51' E 010°45'816.2
2017-Sep-20 02:31N 58°43' E 010°48'816.5
2017-Sep-20 02:01N 58°34' E 010°51'917.4
2017-Sep-20 01:31N 58°26' E 010°56'917.1
2017-Sep-20 01:01N 58°18' E 011°00'916.9
2017-Sep-20 00:27N 58°09' E 011°05'817.1
2017-Sep-19 23:58N 58°01' E 011°09'817.0
2017-Sep-19 23:30N 57°53' E 011°14'917.1
2017-Sep-19 23:00N 57°45' E 011°18'917.2
2017-Sep-19 22:31N 57°37' E 011°23'917.4
2017-Sep-19 22:01N 57°29' E 011°28'917.0
2017-Sep-19 21:30N 57°21' E 011°33'816.7
2017-Sep-19 21:00N 57°13' E 011°38'916.6
2017-Sep-19 20:28N 57°04' E 011°43'5216.1
2017-Sep-19 17:16N 56°18' E 012°23'416.4
2017-Sep-19 17:01N 56°14' E 012°25'816.4
2017-Sep-19 16:31N 56°07' E 012°34'816.3
2017-Sep-19 16:00N 55°60' E 012°41'816.2
2017-Sep-19 15:31N 55°52' E 012°45'815.6
2017-Sep-19 15:01N 55°44' E 012°40'3 6.9
2017-Sep-19 14:30N 55°42' E 012°36'0 0.0
2017-Sep-19 14:00N 55°42' E 012°36'0 0.0
2017-Sep-19 13:30N 55°42' E 012°36'0 0.0
2017-Sep-19 13:00N 55°42' E 012°36'0 0.0
2017-Sep-19 12:30N 55°42' E 012°36'0 0.0
2017-Sep-19 12:00N 55°42' E 012°36'0 0.0
2017-Sep-19 11:30N 55°42' E 012°36'0 0.0
2017-Sep-19 11:00N 55°42' E 012°36'0 0.1
2017-Sep-19 10:30N 55°42' E 012°36'0 0.0
2017-Sep-19 10:00N 55°42' E 012°36'0 0.0
2017-Sep-19 09:30N 55°42' E 012°36'0 0.0
2017-Sep-19 09:00N 55°42' E 012°36'0 0.0
2017-Sep-19 08:30N 55°42' E 012°36'0 0.0
2017-Sep-19 08:01N 55°42' E 012°36'1 2.1
2017-Sep-19 07:30N 55°43' E 012°37'713.7
2017-Sep-19 07:00N 55°49' E 012°42'816.3
2017-Sep-19 06:31N 55°57' E 012°40'815.8
2017-Sep-19 06:01N 56°05' E 012°36'816.8
2017-Sep-19 05:31N 56°12' E 012°28'6814.8
2017-Sep-19 00:53N 57°16' E 011°49'616.7
2017-Sep-19 00:31N 57°22' E 011°43'917.1
2017-Sep-19 00:00N 57°29' E 011°35'817.0
2017-Sep-18 23:30N 57°37' E 011°27'917.1
2017-Sep-18 22:59N 57°44' E 011°17'817.2
2017-Sep-18 22:30N 57°51' E 011°09'917.2
2017-Sep-18 22:00N 57°58' E 011°00'917.5
2017-Sep-18 21:30N 58°07' E 010°54'1017.0
2017-Sep-18 20:54N 58°16' E 010°47'717.1
2017-Sep-18 20:30N 58°22' E 010°43'816.9
2017-Sep-18 20:01N 58°30' E 010°37'816.4
2017-Sep-18 19:30N 58°38' E 010°37'815.9
2017-Sep-18 19:01N 58°46' E 010°36'816.4
2017-Sep-18 18:30N 58°54' E 010°34'816.0
2017-Sep-18 18:00N 59°02' E 010°36'816.0
2017-Sep-18 17:30N 59°10' E 010°38'816.6
2017-Sep-18 17:01N 59°19' E 010°36'816.6
2017-Sep-18 16:31N 59°27' E 010°33'816.6
2017-Sep-18 16:01N 59°35' E 010°38'714.4
2017-Sep-18 15:31N 59°42' E 010°35'815.7
2017-Sep-18 15:00N 59°50' E 010°35'712.9
2017-Sep-18 14:30N 59°54' E 010°44'0 0.3
2017-Sep-18 13:59N 59°54' E 010°45'0 0.0
2017-Sep-18 13:29N 59°54' E 010°45'0 0.0
2017-Sep-18 12:59N 59°54' E 010°45'0 0.0
2017-Sep-18 12:29N 59°54' E 010°45'0 0.0
2017-Sep-18 11:59N 59°54' E 010°45'0 0.0
2017-Sep-18 11:29N 59°54' E 010°45'0 0.0
2017-Sep-18 10:59N 59°54' E 010°45'0 0.0
2017-Sep-18 10:29N 59°54' E 010°45'0 0.0
2017-Sep-18 09:59N 59°54' E 010°45'0 0.0
2017-Sep-18 09:29N 59°54' E 010°45'0 0.0
2017-Sep-18 08:59N 59°54' E 010°45'0 0.0
2017-Sep-18 08:29N 59°54' E 010°45'0 0.0
2017-Sep-18 07:59N 59°54' E 010°45'0 0.2
2017-Sep-18 07:30N 59°54' E 010°45'612.1
2017-Sep-18 07:00N 59°50' E 010°36'815.2
2017-Sep-18 06:30N 59°42' E 010°36'713.4
2017-Sep-18 06:00N 59°36' E 010°38'816.3
2017-Sep-18 05:30N 59°28' E 010°34'815.0
2017-Sep-18 05:00N 59°20' E 010°36'815.6
2017-Sep-18 04:30N 59°13' E 010°38'815.5
2017-Sep-18 04:00N 59°05' E 010°41'815.6
2017-Sep-18 03:30N 58°57' E 010°41'815.8
2017-Sep-18 03:00N 58°50' E 010°45'815.9
2017-Sep-18 02:30N 58°42' E 010°47'816.5
2017-Sep-18 02:00N 58°34' E 010°50'917.4
2017-Sep-18 01:30N 58°25' E 010°55'917.4
2017-Sep-18 01:00N 58°17' E 010°60'817.0
2017-Sep-18 00:31N 58°09' E 011°04'816.5
2017-Sep-18 00:00N 58°01' E 011°09'816.2
2017-Sep-17 23:30N 57°54' E 011°16'816.4
2017-Sep-17 23:00N 57°46' E 011°22'816.4
2017-Sep-17 22:30N 57°38' E 011°26'816.6
2017-Sep-17 22:00N 57°30' E 011°30'816.5
2017-Sep-17 21:30N 57°22' E 011°32'816.3
2017-Sep-17 21:00N 57°14' E 011°36'816.7
2017-Sep-17 20:30N 57°06' E 011°41'4715.8
2017-Sep-17 17:31N 56°24' E 012°17'115.3
2017-Sep-17 17:28N 56°23' E 012°17'915.7
2017-Sep-17 16:53N 56°15' E 012°25'616.8
2017-Sep-17 16:30N 56°09' E 012°31'917.4
2017-Sep-17 16:00N 56°02' E 012°40'816.7
2017-Sep-17 15:30N 55°54' E 012°45'816.0
2017-Sep-17 15:00N 55°46' E 012°42'510.8
2017-Sep-17 14:30N 55°42' E 012°36'0 0.2
2017-Sep-17 13:58N 55°42' E 012°36'0 0.0
2017-Sep-17 13:28N 55°42' E 012°36'0 0.0
2017-Sep-17 12:58N 55°42' E 012°36'0 0.0
2017-Sep-17 12:28N 55°42' E 012°36'0 0.0
2017-Sep-17 11:58N 55°42' E 012°36'0 0.0
2017-Sep-17 11:28N 55°42' E 012°36'0 0.0
2017-Sep-17 10:58N 55°42' E 012°36'0 0.0
2017-Sep-17 10:28N 55°42' E 012°36'0 0.0
2017-Sep-17 09:58N 55°42' E 012°36'0 0.0
2017-Sep-17 09:28N 55°42' E 012°36'0 0.0
2017-Sep-17 08:58N 55°42' E 012°36'0 0.0
2017-Sep-17 08:28N 55°42' E 012°36'0 0.0
2017-Sep-17 07:58N 55°42' E 012°36'0 0.9
2017-Sep-17 07:31N 55°42' E 012°36'611.7
2017-Sep-17 07:01N 55°47' E 012°42'714.1
2017-Sep-17 06:31N 55°54' E 012°39'815.2
2017-Sep-17 06:01N 56°02' E 012°39'714.3
2017-Sep-17 05:31N 56°07' E 012°31'714.6
2017-Sep-17 05:01N 56°14' E 012°24'814.9
2017-Sep-17 04:30N 56°21' E 012°20'5616.0
2017-Sep-17 01:01N 57°14' E 011°52'016.6
2017-Sep-17 01:00N 57°14' E 011°51'916.5
2017-Sep-17 00:29N 57°21' E 011°41'816.6
2017-Sep-17 00:01N 57°27' E 011°32'816.7
2017-Sep-16 23:31N 57°34' E 011°24'917.2
2017-Sep-16 23:00N 57°42' E 011°16'917.2
2017-Sep-16 22:30N 57°49' E 011°06'917.0
2017-Sep-16 21:58N 57°57' E 011°01'817.2
2017-Sep-16 21:31N 58°05' E 010°55'917.3
2017-Sep-16 21:00N 58°13' E 010°49'917.3
2017-Sep-16 20:31N 58°21' E 010°43'816.9
2017-Sep-16 20:00N 58°29' E 010°38'816.2
2017-Sep-16 19:30N 58°37' E 010°36'815.7
2017-Sep-16 19:01N 58°45' E 010°35'816.7
2017-Sep-16 18:31N 58°53' E 010°35'817.0
2017-Sep-16 18:01N 59°02' E 010°37'817.0
2017-Sep-16 17:31N 59°10' E 010°38'917.4
2017-Sep-16 17:01N 59°19' E 010°36'917.4
2017-Sep-16 16:31N 59°27' E 010°33'816.8
2017-Sep-16 16:01N 59°35' E 010°38'714.7
2017-Sep-16 15:31N 59°42' E 010°35'815.9
2017-Sep-16 15:01N 59°50' E 010°35'612.2
2017-Sep-16 14:30N 59°54' E 010°45'0 0.4
2017-Sep-16 14:00N 59°54' E 010°45'0 0.0
2017-Sep-16 13:30N 59°54' E 010°45'0 0.0
2017-Sep-16 13:00N 59°54' E 010°45'0 0.0
2017-Sep-16 12:30N 59°54' E 010°45'0 0.0
2017-Sep-16 12:00N 59°54' E 010°45'0 0.0
2017-Sep-16 11:30N 59°54' E 010°45'0 0.0
2017-Sep-16 11:00N 59°54' E 010°45'0 0.0
2017-Sep-16 10:30N 59°54' E 010°45'0 0.0
2017-Sep-16 10:00N 59°54' E 010°45'0 0.0
2017-Sep-16 09:30N 59°54' E 010°45'0 0.0
2017-Sep-16 09:00N 59°54' E 010°45'0 0.0
2017-Sep-16 08:30N 59°54' E 010°45'0 0.0
2017-Sep-16 08:00N 59°54' E 010°45'0 0.5
2017-Sep-16 07:30N 59°54' E 010°44'611.9
2017-Sep-16 07:01N 59°50' E 010°36'815.2
2017-Sep-16 06:30N 59°42' E 010°36'713.8
2017-Sep-16 06:00N 59°36' E 010°38'815.5
2017-Sep-16 05:30N 59°28' E 010°34'815.2
2017-Sep-16 05:00N 59°20' E 010°35'815.2
2017-Sep-16 04:30N 59°13' E 010°38'815.1
2017-Sep-16 04:00N 59°06' E 010°40'714.8
2017-Sep-16 03:30N 58°58' E 010°42'815.1
2017-Sep-16 03:00N 58°51' E 010°43'815.9
2017-Sep-16 02:30N 58°43' E 010°45'817.0
2017-Sep-16 02:00N 58°35' E 010°49'917.8
2017-Sep-16 01:30N 58°26' E 010°54'918.5
2017-Sep-16 01:00N 58°17' E 010°60'918.2
2017-Sep-16 00:30N 58°09' E 011°05'917.5
2017-Sep-16 00:00N 58°00' E 011°10'917.7
2017-Sep-15 23:30N 57°52' E 011°15'816.9
2017-Sep-15 23:00N 57°44' E 011°20'816.9
2017-Sep-15 22:30N 57°36' E 011°25'917.3
2017-Sep-15 22:00N 57°28' E 011°30'917.5
2017-Sep-15 21:30N 57°19' E 011°35'1117.6
2017-Sep-15 20:54N 57°09' E 011°40'1217.5
2017-Sep-15 20:14N 56°58' E 011°49'4716.8
2017-Sep-15 17:27N 56°16' E 012°24'816.9
2017-Sep-15 17:00N 56°09' E 012°30'815.8
2017-Sep-15 16:30N 56°03' E 012°39'714.3
2017-Sep-15 16:00N 55°56' E 012°39'815.7
2017-Sep-15 15:30N 55°48' E 012°42'612.7
2017-Sep-15 15:00N 55°43' E 012°37'1 1.5
2017-Sep-15 14:29N 55°42' E 012°36'0 0.0
2017-Sep-15 13:53N 55°42' E 012°36'0 0.0
2017-Sep-15 13:26N 55°42' E 012°36'0 0.0
2017-Sep-15 12:59N 55°42' E 012°36'0 0.0
2017-Sep-15 12:29N 55°42' E 012°36'0 0.0
2017-Sep-15 11:59N 55°42' E 012°36'0 0.0
2017-Sep-15 11:29N 55°42' E 012°36'0 0.0
2017-Sep-15 10:59N 55°42' E 012°36'0 0.0
2017-Sep-15 10:29N 55°42' E 012°36'  

Dump ship's entire track history